createdAt,value
2018-03-20T00:00:22.449Z,-4.09
2018-03-20T00:01:22.593Z,-4.16
2018-03-20T00:02:22.732Z,-4.03
2018-03-20T00:03:22.880Z,-4.04
2018-03-20T00:04:23.019Z,-4.02
2018-03-20T00:05:23.163Z,-4.03
2018-03-20T00:06:23.309Z,-4.06
2018-03-20T00:07:23.451Z,-4.04
2018-03-20T00:08:23.595Z,-4.04
2018-03-20T00:09:23.743Z,-4.13
2018-03-20T00:10:23.884Z,-4.20
2018-03-20T00:13:24.298Z,-4.17
2018-03-20T00:14:24.440Z,-4.21
2018-03-20T00:16:24.720Z,-4.16
2018-03-20T00:17:24.864Z,-4.04
2018-03-20T00:18:25.005Z,-4.17
2018-03-20T00:19:25.151Z,-4.10
2018-03-20T00:20:25.293Z,-4.07
2018-03-20T00:21:25.440Z,-4.17
2018-03-20T00:22:25.591Z,-4.14
2018-03-20T00:23:25.732Z,-4.35
2018-03-20T00:24:25.879Z,-4.30
2018-03-20T00:25:26.019Z,-4.25
2018-03-20T00:26:26.163Z,-4.31
2018-03-20T00:28:26.444Z,-4.27
2018-03-20T00:29:26.592Z,-4.17
2018-03-20T00:30:26.736Z,-4.27
2018-03-20T00:31:26.884Z,-4.27
2018-03-20T00:32:27.015Z,-4.32
2018-03-20T00:33:27.159Z,-4.21
2018-03-20T00:34:27.304Z,-4.32
2018-03-20T00:35:27.449Z,-4.31
2018-03-20T00:36:27.592Z,-4.32
2018-03-20T00:37:27.734Z,-4.32
2018-03-20T00:38:27.882Z,-4.45
2018-03-20T00:39:28.028Z,-4.43
2018-03-20T00:40:28.173Z,-4.61
2018-03-20T00:41:28.312Z,-4.59
2018-03-20T00:42:28.794Z,-4.48
2018-03-20T00:43:28.602Z,-4.53
2018-03-20T00:44:28.741Z,-4.60
2018-03-20T00:45:28.885Z,-4.64
2018-03-20T00:46:29.030Z,-4.59
2018-03-20T00:47:29.173Z,-4.63
2018-03-20T00:48:29.317Z,-4.60
2018-03-20T00:49:29.459Z,-4.60
2018-03-20T00:50:29.605Z,-4.63
2018-03-20T00:51:29.766Z,-4.60
2018-03-20T00:52:29.881Z,-4.64
2018-03-20T00:53:30.024Z,-4.64
2018-03-20T00:54:30.182Z,-4.61
2018-03-20T00:55:30.308Z,-4.63
2018-03-20T00:56:30.460Z,-4.59
2018-03-20T00:58:30.728Z,-4.70
2018-03-20T00:59:30.868Z,-4.64
2018-03-20T01:00:31.022Z,-4.77
2018-03-20T01:01:31.162Z,-4.66
2018-03-20T01:02:31.303Z,-4.71
2018-03-20T01:03:31.453Z,-4.78
2018-03-20T01:04:31.594Z,-4.91
2018-03-20T01:05:31.737Z,-5.08
2018-03-20T01:06:31.878Z,-5.08
2018-03-20T01:07:32.024Z,-5.06
2018-03-20T01:08:32.169Z,-5.10
2018-03-20T01:09:32.313Z,-5.14
2018-03-20T01:10:32.459Z,-5.13
2018-03-20T01:11:32.606Z,-5.06
2018-03-20T01:12:32.740Z,-4.91
2018-03-20T01:13:32.887Z,-4.98
2018-03-20T01:14:33.029Z,-5.02
2018-03-20T01:15:33.174Z,-5.03
2018-03-20T01:16:33.316Z,-4.96
2018-03-20T01:17:33.509Z,-4.96
2018-03-20T01:18:33.601Z,-5.00
2018-03-20T01:19:33.753Z,-4.91
2018-03-20T01:20:33.896Z,-4.99
2018-03-20T01:21:34.039Z,-5.06
2018-03-20T01:22:34.182Z,-5.13
2018-03-20T01:23:34.325Z,-5.29
2018-03-20T01:24:34.470Z,-5.28
2018-03-20T01:25:34.613Z,-5.27
2018-03-20T01:26:34.757Z,-5.27
2018-03-20T01:27:34.899Z,-5.36
2018-03-20T01:28:35.043Z,-5.28
2018-03-20T01:29:35.188Z,-5.36
2018-03-20T01:30:35.331Z,-5.28
2018-03-20T01:31:35.474Z,-5.45
2018-03-20T01:32:35.616Z,-5.39
2018-03-20T01:33:35.758Z,-5.33
2018-03-20T01:34:35.905Z,-5.25
2018-03-20T01:35:36.045Z,-5.22
2018-03-20T01:36:36.451Z,-5.27
2018-03-20T01:37:36.337Z,-5.21
2018-03-20T01:38:36.478Z,-5.33
2018-03-20T01:39:36.625Z,-5.31
2018-03-20T01:40:36.764Z,-5.29
2018-03-20T01:41:36.905Z,-5.19
2018-03-20T01:42:37.051Z,-5.22
2018-03-20T01:43:37.197Z,-5.27
2018-03-20T01:44:37.339Z,-5.18
2018-03-20T01:45:37.478Z,-5.08
2018-03-20T01:46:37.620Z,-5.27
2018-03-20T01:47:37.766Z,-5.27
2018-03-20T01:48:37.909Z,-5.21
2018-03-20T01:49:38.039Z,-5.33
2018-03-20T01:50:38.183Z,-5.25
2018-03-20T01:51:38.577Z,-5.38
2018-03-20T01:52:38.470Z,-5.25
2018-03-20T01:53:38.620Z,-5.35
2018-03-20T01:54:38.756Z,-5.49
2018-03-20T01:55:38.908Z,-5.40
2018-03-20T01:56:39.048Z,-5.38
2018-03-20T01:57:39.187Z,-5.28
2018-03-20T01:58:39.332Z,-5.33
2018-03-20T01:59:39.475Z,-5.35
2018-03-20T02:00:39.616Z,-5.36
2018-03-20T02:01:39.762Z,-5.28
2018-03-20T02:02:39.908Z,-5.40
2018-03-20T02:03:40.050Z,-5.27
2018-03-20T02:04:40.191Z,-5.36
2018-03-20T02:05:40.337Z,-5.40
2018-03-20T02:06:40.485Z,-5.29
2018-03-20T02:07:40.623Z,-5.31
2018-03-20T02:08:40.766Z,-5.39
2018-03-20T02:09:40.910Z,-5.38
2018-03-20T02:10:41.104Z,-5.38
2018-03-20T02:11:41.200Z,-5.45
2018-03-20T02:12:41.338Z,-5.54
2018-03-20T02:13:41.485Z,-5.68
2018-03-20T02:14:41.629Z,-5.71
2018-03-20T02:15:41.792Z,-5.63
2018-03-20T02:16:41.906Z,-5.54
2018-03-20T02:17:42.049Z,-5.57
2018-03-20T02:19:42.329Z,-5.56
2018-03-20T02:20:42.472Z,-5.58
2018-03-20T02:21:42.621Z,-5.66
2018-03-20T02:22:42.758Z,-5.60
2018-03-20T02:23:42.898Z,-5.66
2018-03-20T02:24:43.043Z,-5.68
2018-03-20T02:25:43.191Z,-5.57
2018-03-20T02:26:43.329Z,-5.58
2018-03-20T02:27:43.474Z,-5.47
2018-03-20T02:28:43.617Z,-5.54
2018-03-20T02:29:43.762Z,-5.54
2018-03-20T02:30:43.898Z,-5.53
2018-03-20T02:31:44.044Z,-5.57
2018-03-20T02:32:44.186Z,-5.54
2018-03-20T02:33:44.331Z,-5.57
2018-03-20T02:34:44.472Z,-5.68
2018-03-20T02:35:44.620Z,-5.74
2018-03-20T02:36:44.761Z,-5.72
2018-03-20T02:37:44.908Z,-5.72
2018-03-20T02:38:45.048Z,-5.72
2018-03-20T02:39:45.189Z,-5.79
2018-03-20T02:40:45.337Z,-5.60
2018-03-20T02:41:45.483Z,-5.63
2018-03-20T02:42:45.620Z,-5.58
2018-03-20T02:43:45.765Z,-5.60
2018-03-20T02:44:45.910Z,-5.67
2018-03-20T02:45:46.053Z,-5.74
2018-03-20T02:46:46.197Z,-5.61
2018-03-20T02:47:46.340Z,-5.56
2018-03-20T02:48:46.504Z,-5.57
2018-03-20T02:49:46.618Z,-5.72
2018-03-20T02:50:46.761Z,-5.72
2018-03-20T02:51:46.904Z,-5.74
2018-03-20T02:52:47.050Z,-5.79
2018-03-20T02:53:47.190Z,-5.81
2018-03-20T02:54:47.330Z,-5.84
2018-03-20T02:55:47.474Z,-5.84
2018-03-20T02:56:47.617Z,-5.76
2018-03-20T02:57:47.763Z,-5.90
2018-03-20T02:58:47.908Z,-5.90
2018-03-20T02:59:48.043Z,-5.86
2018-03-20T03:00:48.198Z,-5.84
2018-03-20T03:01:48.332Z,-5.97
2018-03-20T03:02:48.488Z,-5.85
2018-03-20T03:04:48.753Z,-5.79
2018-03-20T03:05:48.898Z,-5.90
2018-03-20T03:06:49.036Z,-5.89
2018-03-20T03:07:49.182Z,-5.99
2018-03-20T03:08:49.328Z,-5.75
2018-03-20T03:09:49.468Z,-5.95
2018-03-20T03:10:49.609Z,-5.74
2018-03-20T03:11:49.750Z,-5.95
2018-03-20T03:12:50.365Z,-5.86
2018-03-20T03:13:50.030Z,-5.93
2018-03-20T03:14:50.172Z,-5.95
2018-03-20T03:16:50.455Z,-5.90
2018-03-20T03:17:50.595Z,-6.05
2018-03-20T03:18:50.738Z,-5.89
2018-03-20T03:19:50.881Z,-6.07
2018-03-20T03:20:51.019Z,-5.84
2018-03-20T03:21:51.166Z,-5.96
2018-03-20T03:22:51.303Z,-5.99
2018-03-20T03:23:51.437Z,-5.93
2018-03-20T03:24:51.582Z,-5.93
2018-03-20T03:25:51.728Z,-5.92
2018-03-20T03:26:51.863Z,-6.05
2018-03-20T03:27:52.011Z,-5.97
2018-03-20T03:28:52.150Z,-6.05
2018-03-20T03:29:52.292Z,-6.03
2018-03-20T03:30:52.823Z,-5.97
2018-03-20T03:31:52.577Z,-5.95
2018-03-20T03:32:52.720Z,-5.93
2018-03-20T03:33:53.215Z,-5.90
2018-03-20T03:34:53.009Z,-5.92
2018-03-20T03:35:53.148Z,-6.07
2018-03-20T03:36:53.291Z,-6.13
2018-03-20T03:37:53.431Z,-6.18
2018-03-20T03:38:53.579Z,-6.03
2018-03-20T03:39:54.016Z,-6.08
2018-03-20T03:40:53.861Z,-6.07
2018-03-20T03:41:54.005Z,-6.03
2018-03-20T03:42:54.430Z,-5.97
2018-03-20T03:43:54.291Z,-5.84
2018-03-20T03:44:54.433Z,-5.89
2018-03-20T03:45:54.825Z,-5.86
2018-03-20T03:46:54.717Z,-5.79
2018-03-20T03:47:54.870Z,-6.18
2018-03-20T03:48:55.005Z,-5.99
2018-03-20T03:49:55.149Z,-5.89
2018-03-20T03:50:55.301Z,-5.95
2018-03-20T03:51:55.435Z,-6.02
2018-03-20T03:52:55.577Z,-5.82
2018-03-20T03:53:55.720Z,-5.86
2018-03-20T03:54:55.869Z,-5.81
2018-03-20T03:55:55.997Z,-5.81
2018-03-20T03:56:56.132Z,-5.89
2018-03-20T03:57:56.515Z,-5.90
2018-03-20T03:58:56.418Z,-5.96
2018-03-20T03:59:56.561Z,-5.92
2018-03-20T04:00:56.947Z,-5.93
2018-03-20T04:01:56.849Z,-5.99
2018-03-20T04:02:56.987Z,-6.11
2018-03-20T04:03:57.127Z,-6.18
2018-03-20T04:04:57.269Z,-6.10
2018-03-20T04:05:57.414Z,-6.02
2018-03-20T04:06:57.556Z,-5.93
2018-03-20T04:07:57.698Z,-5.99
2018-03-20T04:08:57.842Z,-5.95
2018-03-20T04:09:57.991Z,-5.99
2018-03-20T04:10:58.127Z,-6.11
2018-03-20T04:11:58.273Z,-6.24
2018-03-20T04:12:58.668Z,-6.23
2018-03-20T04:13:58.561Z,-6.26
2018-03-20T04:14:58.703Z,-6.20
2018-03-20T04:15:59.109Z,-6.20
2018-03-20T04:16:58.988Z,-6.21
2018-03-20T04:17:59.131Z,-6.15
2018-03-20T04:18:59.287Z,-6.15
2018-03-20T04:19:59.418Z,-6.05
2018-03-20T04:20:59.562Z,-6.13
2018-03-20T04:21:59.714Z,-6.08
2018-03-20T04:22:59.851Z,-6.17
2018-03-20T04:23:59.995Z,-6.20
2018-03-20T04:25:00.150Z,-6.23
2018-03-20T04:26:00.282Z,-6.13
2018-03-20T04:27:00.422Z,-6.15
2018-03-20T04:28:00.575Z,-6.13
2018-03-20T04:29:00.712Z,-6.00
2018-03-20T04:30:00.852Z,-6.07
2018-03-20T04:31:00.994Z,-5.99
2018-03-20T04:32:01.140Z,-6.02
2018-03-20T04:33:01.282Z,-5.92
2018-03-20T04:34:01.419Z,-5.81
2018-03-20T04:35:01.570Z,-5.84
2018-03-20T04:36:01.705Z,-5.82
2018-03-20T04:37:01.856Z,-5.90
2018-03-20T04:38:01.993Z,-5.76
2018-03-20T04:39:02.135Z,-5.71
2018-03-20T04:40:02.552Z,-5.74
2018-03-20T04:41:02.419Z,-5.57
2018-03-20T04:42:02.568Z,-5.56
2018-03-20T04:43:02.728Z,-5.61
2018-03-20T04:44:02.860Z,-5.49
2018-03-20T04:45:02.992Z,-5.53
2018-03-20T04:46:03.133Z,-5.47
2018-03-20T04:47:03.276Z,-5.53
2018-03-20T04:48:03.453Z,-5.43
2018-03-20T04:49:03.562Z,-5.51
2018-03-20T04:50:03.704Z,-5.57
2018-03-20T04:51:03.847Z,-5.46
2018-03-20T04:52:03.988Z,-5.40
2018-03-20T04:53:04.135Z,-5.39
2018-03-20T04:54:04.273Z,-5.27
2018-03-20T04:55:04.417Z,-5.22
2018-03-20T04:56:04.560Z,-5.28
2018-03-20T04:57:04.702Z,-5.25
2018-03-20T04:58:04.851Z,-5.10
2018-03-20T04:59:04.990Z,-5.19
2018-03-20T05:00:05.136Z,-5.21
2018-03-20T05:01:05.276Z,-5.29
2018-03-20T05:02:05.423Z,-5.29
2018-03-20T05:03:05.566Z,-5.28
2018-03-20T05:04:05.706Z,-5.06
2018-03-20T05:05:05.903Z,-5.27
2018-03-20T05:06:05.992Z,-5.18
2018-03-20T05:07:06.546Z,-5.18
2018-03-20T05:08:06.278Z,-5.18
2018-03-20T05:09:06.423Z,-5.18
2018-03-20T05:10:06.563Z,-5.17
2018-03-20T05:11:06.707Z,-5.19
2018-03-20T05:12:06.855Z,-5.25
2018-03-20T05:13:06.997Z,-5.29
2018-03-20T05:14:07.139Z,-5.13
2018-03-20T05:15:07.291Z,-5.24
2018-03-20T05:16:07.435Z,-5.22
2018-03-20T05:17:07.571Z,-5.13
2018-03-20T05:18:07.715Z,-5.17
2018-03-20T05:19:08.186Z,-5.19
2018-03-20T05:20:08.000Z,-5.21
2018-03-20T05:21:08.145Z,-5.24
2018-03-20T05:22:08.599Z,-5.25
2018-03-20T05:23:08.431Z,-5.17
2018-03-20T05:24:08.572Z,-5.21
2018-03-20T05:25:08.721Z,-5.22
2018-03-20T05:26:08.858Z,-5.08
2018-03-20T05:27:09.004Z,-5.03
2018-03-20T05:28:09.152Z,-5.21
2018-03-20T05:29:09.291Z,-5.10
2018-03-20T05:30:09.434Z,-5.13
2018-03-20T05:31:09.576Z,-5.10
2018-03-20T05:32:09.716Z,-5.17
2018-03-20T05:33:09.859Z,-5.05
2018-03-20T05:34:10.012Z,-4.98
2018-03-20T05:35:10.148Z,-4.95
2018-03-20T05:36:10.293Z,-4.96
2018-03-20T05:37:10.442Z,-4.91
2018-03-20T05:38:10.582Z,-4.91
2018-03-20T05:39:10.721Z,-4.99
2018-03-20T05:40:11.109Z,-4.95
2018-03-20T05:41:11.008Z,-4.91
2018-03-20T05:42:11.151Z,-4.91
2018-03-20T05:43:11.294Z,-4.84
2018-03-20T05:44:11.439Z,-4.73
2018-03-20T05:45:11.582Z,-4.91
2018-03-20T05:46:11.724Z,-4.77
2018-03-20T05:47:11.863Z,-4.75
2018-03-20T05:48:12.008Z,-4.77
2018-03-20T05:49:12.160Z,-4.79
2018-03-20T05:50:12.298Z,-4.69
2018-03-20T05:51:12.463Z,-4.75
2018-03-20T05:52:12.589Z,-4.63
2018-03-20T05:53:12.727Z,-4.66
2018-03-20T05:54:12.871Z,-4.63
2018-03-20T05:55:13.019Z,-4.64
2018-03-20T05:56:13.158Z,-4.64
2018-03-20T05:57:13.300Z,-4.57
2018-03-20T05:58:13.445Z,-4.52
2018-03-20T05:59:13.595Z,-4.55
2018-03-20T06:00:13.736Z,-4.61
2018-03-20T06:01:13.877Z,-4.61
2018-03-20T06:02:14.018Z,-4.50
2018-03-20T06:03:14.170Z,-4.39
2018-03-20T06:04:14.556Z,-4.45
2018-03-20T06:05:14.459Z,-4.43
2018-03-20T06:06:14.619Z,-4.45
2018-03-20T06:07:14.746Z,-4.42
2018-03-20T06:08:14.890Z,-4.35
2018-03-20T06:09:15.029Z,-4.35
2018-03-20T06:10:15.171Z,-4.34
2018-03-20T06:11:15.320Z,-4.45
2018-03-20T06:12:15.461Z,-4.42
2018-03-20T06:13:15.601Z,-4.32
2018-03-20T06:14:15.747Z,-4.32
2018-03-20T06:15:15.892Z,-4.35
2018-03-20T06:16:16.276Z,-4.21
2018-03-20T06:17:16.177Z,-4.21
2018-03-20T06:18:16.322Z,-4.20
2018-03-20T06:19:16.713Z,-4.12
2018-03-20T06:20:16.608Z,-4.07
2018-03-20T06:21:16.752Z,-4.16
2018-03-20T06:22:17.141Z,-4.16
2018-03-20T06:23:17.041Z,-4.20
2018-03-20T06:24:17.187Z,-4.20
2018-03-20T06:25:17.338Z,-4.16
2018-03-20T06:26:17.471Z,-4.03
2018-03-20T06:27:17.614Z,-4.06
2018-03-20T06:28:18.006Z,-4.04
2018-03-20T06:29:17.902Z,-4.09
2018-03-20T06:30:18.048Z,-3.95
2018-03-20T06:31:18.203Z,-3.95
2018-03-20T06:32:18.337Z,-3.96
2018-03-20T06:33:18.484Z,-3.85
2018-03-20T06:34:18.623Z,-3.89
2018-03-20T06:35:18.765Z,-3.86
2018-03-20T06:36:18.911Z,-3.86
2018-03-20T06:37:19.059Z,-3.85
2018-03-20T06:38:19.198Z,-3.85
2018-03-20T06:39:19.345Z,-3.82
2018-03-20T06:40:19.589Z,-3.78
2018-03-20T06:41:19.664Z,-3.85
2018-03-20T06:42:19.814Z,-3.82
2018-03-20T06:43:19.971Z,-3.70
2018-03-20T06:44:20.101Z,-3.67
2018-03-20T06:45:20.256Z,-3.69
2018-03-20T06:46:20.417Z,-3.61
2018-03-20T06:47:20.531Z,-3.66
2018-03-20T06:48:20.676Z,-3.51
2018-03-20T06:49:20.820Z,-3.54
2018-03-20T06:50:20.964Z,-3.48
2018-03-20T06:51:21.109Z,-3.38
2018-03-20T06:52:21.252Z,-3.38
2018-03-20T06:53:21.402Z,-3.40
2018-03-20T06:54:21.541Z,-3.37
2018-03-20T06:55:21.683Z,-3.38
2018-03-20T06:56:21.838Z,-3.35
2018-03-20T06:57:21.978Z,-3.23
2018-03-20T06:58:22.113Z,-3.27
2018-03-20T06:59:22.256Z,-3.20
2018-03-20T07:00:22.395Z,-3.23
2018-03-20T07:01:22.543Z,-3.19
2018-03-20T07:02:22.692Z,-3.12
2018-03-20T07:03:22.833Z,-3.15
2018-03-20T07:04:22.978Z,-3.10
2018-03-20T07:05:23.134Z,-3.19
2018-03-20T07:06:23.275Z,-3.01
2018-03-20T07:07:23.420Z,-2.99
2018-03-20T07:08:23.564Z,-2.91
2018-03-20T07:09:23.708Z,-2.99
2018-03-20T07:10:23.860Z,-2.97
2018-03-20T07:11:23.999Z,-3.06
2018-03-20T07:12:24.144Z,-2.98
2018-03-20T07:13:24.305Z,-3.01
2018-03-20T07:14:24.426Z,-2.92
2018-03-20T07:15:24.569Z,-2.97
2018-03-20T07:16:24.723Z,-2.98
2018-03-20T07:17:24.863Z,-2.95
2018-03-20T07:18:24.993Z,-2.98
2018-03-20T07:19:25.141Z,-2.84
2018-03-20T07:20:25.288Z,-2.92
2018-03-20T07:21:25.433Z,-2.77
2018-03-20T07:22:25.581Z,-2.80
2018-03-20T07:23:25.726Z,-2.66
2018-03-20T07:24:25.867Z,-2.70
2018-03-20T07:25:26.012Z,-2.63
2018-03-20T07:26:26.158Z,-2.53
2018-03-20T07:27:26.303Z,-2.55
2018-03-20T07:28:26.527Z,-2.52
2018-03-20T07:29:26.577Z,-2.34
2018-03-20T07:30:26.729Z,-2.35
2018-03-20T07:31:26.875Z,-2.35
2018-03-20T07:32:27.018Z,-2.40
2018-03-20T07:33:27.165Z,-2.25
2018-03-20T07:34:27.330Z,-2.26
2018-03-20T07:35:27.461Z,-2.15
2018-03-20T07:36:27.602Z,-2.01
2018-03-20T07:37:27.748Z,-1.83
2018-03-20T07:38:27.896Z,-1.80
2018-03-20T07:39:28.046Z,-1.68
2018-03-20T07:40:28.191Z,-1.62
2018-03-20T07:41:28.336Z,-1.66
2018-03-20T07:42:28.479Z,-1.68
2018-03-20T07:43:28.620Z,-1.68
2018-03-20T07:44:28.777Z,-1.66
2018-03-20T07:45:28.919Z,-1.65
2018-03-20T07:46:29.063Z,-1.50
2018-03-20T07:47:29.209Z,-1.43
2018-03-20T07:48:29.372Z,-1.47
2018-03-20T07:49:29.508Z,-1.43
2018-03-20T07:50:29.645Z,-1.44
2018-03-20T07:51:29.806Z,-1.53
2018-03-20T07:52:29.946Z,-1.56
2018-03-20T07:53:30.090Z,-1.64
2018-03-20T07:54:30.247Z,-1.54
2018-03-20T07:55:30.385Z,-1.58
2018-03-20T07:56:30.572Z,-1.64
2018-03-20T07:57:30.679Z,-1.66
2018-03-20T07:58:30.824Z,-1.74
2018-03-20T07:59:30.971Z,-1.74
2018-03-20T08:00:31.115Z,-1.69
2018-03-20T08:01:31.262Z,-1.62
2018-03-20T08:02:31.410Z,-1.74
2018-03-20T08:03:31.569Z,-1.69
2018-03-20T08:04:31.711Z,-1.76
2018-03-20T08:05:31.854Z,-1.74
2018-03-20T08:06:31.999Z,-1.72
2018-03-20T08:07:32.144Z,-1.69
2018-03-20T08:08:32.291Z,-1.61
2018-03-20T08:09:32.446Z,-1.69
2018-03-20T08:10:32.592Z,-1.66
2018-03-20T08:11:32.732Z,-1.62
2018-03-20T08:12:32.877Z,-1.65
2018-03-20T08:13:33.026Z,-1.62
2018-03-20T08:14:33.179Z,-1.61
2018-03-20T08:15:33.318Z,-1.44
2018-03-20T08:16:33.463Z,-1.53
2018-03-20T08:17:33.610Z,-1.43
2018-03-20T08:18:33.759Z,-1.38
2018-03-20T08:19:33.902Z,-1.37
2018-03-20T08:20:34.050Z,-1.38
2018-03-20T08:21:34.212Z,-1.35
2018-03-20T08:22:34.344Z,-1.30
2018-03-20T08:23:34.755Z,-1.33
2018-03-20T08:24:34.636Z,-1.30
2018-03-20T08:25:34.782Z,-1.26
2018-03-20T08:26:34.929Z,-1.15
2018-03-20T08:27:35.068Z,-1.08
2018-03-20T08:28:35.216Z,-1.09
2018-03-20T08:29:35.364Z,-1.19
2018-03-20T08:30:35.508Z,-1.08
2018-03-20T08:31:35.662Z,-1.02
2018-03-20T08:32:35.813Z,-0.82
2018-03-20T08:33:35.950Z,-0.82
2018-03-20T08:34:36.096Z,-0.83
2018-03-20T08:35:36.256Z,-0.77
2018-03-20T08:36:36.394Z,-0.75
2018-03-20T08:37:36.536Z,-0.64
2018-03-20T08:38:36.693Z,-0.75
2018-03-20T08:39:36.833Z,-0.71
2018-03-20T08:40:36.974Z,-0.74
2018-03-20T08:41:37.126Z,-0.80
2018-03-20T08:42:37.272Z,-0.75
2018-03-20T08:43:37.423Z,-0.71
2018-03-20T08:44:37.568Z,-0.77
2018-03-20T08:45:37.712Z,-0.74
2018-03-20T08:46:37.858Z,-0.74
2018-03-20T08:47:38.005Z,-0.72
2018-03-20T08:48:38.153Z,-0.68
2018-03-20T08:49:38.286Z,-0.62
2018-03-20T08:51:38.580Z,-0.62
2018-03-20T08:52:38.729Z,-0.59
2018-03-20T08:53:38.875Z,-0.43
2018-03-20T08:54:39.020Z,-0.50
2018-03-20T08:55:39.167Z,-0.35
2018-03-20T08:56:39.318Z,-0.50
2018-03-20T08:57:39.462Z,-0.47
2018-03-20T08:58:39.611Z,-0.36
2018-03-20T08:59:39.763Z,-0.36
2018-03-20T09:00:39.910Z,-0.38
2018-03-20T09:01:40.066Z,-0.41
2018-03-20T09:02:40.201Z,-0.52
2018-03-20T09:03:40.347Z,-0.57
2018-03-20T09:04:40.495Z,-0.54
2018-03-20T09:05:40.708Z,-0.47
2018-03-20T09:06:40.841Z,-0.38
2018-03-20T09:07:40.988Z,-0.41
2018-03-20T09:08:41.139Z,-0.52
2018-03-20T09:09:41.294Z,-0.32
2018-03-20T09:10:41.452Z,-0.47
2018-03-20T09:11:41.581Z,-0.36
2018-03-20T09:12:41.724Z,-0.31
2018-03-20T09:13:41.874Z,-0.28
2018-03-20T09:14:42.020Z,-0.41
2018-03-20T09:15:42.165Z,-0.43
2018-03-20T09:16:42.310Z,-0.36
2018-03-20T09:17:42.467Z,-0.38
2018-03-20T09:18:42.606Z,-0.34
2018-03-20T09:19:42.760Z,-0.39
2018-03-20T09:20:42.898Z,-0.31
2018-03-20T09:21:43.054Z,-0.32
2018-03-20T09:22:43.193Z,-0.34
2018-03-20T09:23:43.342Z,-0.35
2018-03-20T09:24:43.499Z,-0.26
2018-03-20T09:25:43.632Z,-0.26
2018-03-20T09:26:43.783Z,-0.21
2018-03-20T09:27:43.927Z,-0.18
2018-03-20T09:28:44.075Z,-0.18
2018-03-20T09:29:44.224Z,-0.07
2018-03-20T09:30:44.371Z,-0.17
2018-03-20T09:31:44.527Z,-0.07
2018-03-20T09:32:44.671Z,-0.08
2018-03-20T09:33:44.823Z,-0.06
2018-03-20T09:34:44.969Z,-0.02
2018-03-20T09:35:45.111Z,0.03
2018-03-20T09:36:45.258Z,0.07
2018-03-20T09:37:45.404Z,0.19
2018-03-20T09:38:45.554Z,0.11
2018-03-20T09:39:45.705Z,0.18
2018-03-20T09:40:45.857Z,0.22
2018-03-20T09:41:46.000Z,0.21
2018-03-20T09:42:46.184Z,0.34
2018-03-20T09:43:46.349Z,0.40
2018-03-20T09:44:46.451Z,0.43
2018-03-20T09:45:46.595Z,0.41
2018-03-20T09:46:46.742Z,0.34
2018-03-20T09:47:46.887Z,0.18
2018-03-20T09:48:47.032Z,-0.18
2018-03-20T09:49:47.199Z,-0.36
2018-03-20T09:50:47.344Z,-0.59
2018-03-20T09:51:47.477Z,-0.89
2018-03-20T09:52:47.627Z,-0.94
2018-03-20T09:53:47.769Z,-0.86
2018-03-20T09:54:47.917Z,-0.86
2018-03-20T09:55:48.067Z,-0.72
2018-03-20T09:56:48.213Z,-0.56
2018-03-20T09:57:48.368Z,-0.57
2018-03-20T09:58:48.510Z,-0.17
2018-03-20T09:59:48.657Z,0.23
2018-03-20T10:01:48.945Z,0.16
2018-03-20T10:02:49.086Z,-0.14
2018-03-20T10:03:49.232Z,-0.29
2018-03-20T10:04:49.383Z,-0.38
2018-03-20T10:05:49.530Z,-0.20
2018-03-20T10:06:49.676Z,-0.29
2018-03-20T10:07:49.821Z,-0.31
2018-03-20T10:08:49.970Z,-0.26
2018-03-20T10:09:50.115Z,-0.10
2018-03-20T10:10:50.271Z,-0.28
2018-03-20T10:11:50.421Z,-0.47
2018-03-20T10:12:50.563Z,-0.52
2018-03-20T10:13:50.708Z,-0.59
2018-03-20T10:14:50.854Z,-0.71
2018-03-20T10:15:50.999Z,-0.77
2018-03-20T10:16:51.158Z,-0.57
2018-03-20T10:17:51.288Z,-0.61
2018-03-20T10:18:51.434Z,-0.46
2018-03-20T10:19:51.587Z,-0.34
2018-03-20T10:20:51.735Z,-0.32
2018-03-20T10:21:51.882Z,-0.41
2018-03-20T10:22:52.021Z,-0.39
2018-03-20T10:23:52.176Z,-0.39
2018-03-20T10:24:52.313Z,-0.18
2018-03-20T10:25:52.463Z,-0.18
2018-03-20T10:26:52.624Z,-0.15
2018-03-20T10:27:52.766Z,-0.07
2018-03-20T10:28:52.915Z,-0.17
2018-03-20T10:29:53.062Z,0.12
2018-03-20T10:30:53.205Z,0.18
2018-03-20T10:31:53.358Z,0.19
2018-03-20T10:32:53.501Z,0.11
2018-03-20T10:33:53.643Z,-0.06
2018-03-20T10:34:53.789Z,-0.07
2018-03-20T10:35:53.941Z,0.12
2018-03-20T10:36:54.084Z,0.22
2018-03-20T10:37:54.229Z,0.29
2018-03-20T10:38:54.376Z,0.25
2018-03-20T10:39:54.525Z,0.36
2018-03-20T10:40:54.674Z,0.25
2018-03-20T10:41:54.821Z,0.34
2018-03-20T10:42:54.966Z,0.37
2018-03-20T10:43:55.114Z,0.39
2018-03-20T10:44:55.259Z,0.40
2018-03-20T10:45:55.410Z,0.46
2018-03-20T10:46:55.555Z,0.37
2018-03-20T10:47:55.704Z,0.23
2018-03-20T10:48:55.904Z,0.22
2018-03-20T10:49:55.998Z,0.22
2018-03-20T10:50:56.149Z,0.25
2018-03-20T10:51:56.291Z,0.37
2018-03-20T10:52:56.689Z,0.26
2018-03-20T10:53:56.588Z,0.46
2018-03-20T10:54:56.732Z,0.26
2018-03-20T10:55:56.881Z,0.31
2018-03-20T10:56:57.030Z,0.46
2018-03-20T10:57:57.189Z,0.40
2018-03-20T10:58:57.338Z,0.28
2018-03-20T10:59:57.488Z,0.07
2018-03-20T11:00:57.624Z,0.23
2018-03-20T11:01:57.774Z,0.26
2018-03-20T11:02:57.938Z,0.19
2018-03-20T11:03:58.072Z,0.19
2018-03-20T11:05:58.359Z,0.41
2018-03-20T11:06:58.510Z,0.21
2018-03-20T11:08:58.795Z,0.31
2018-03-20T11:09:58.944Z,0.47
2018-03-20T11:10:59.088Z,0.37
2018-03-20T11:11:59.236Z,0.41
2018-03-20T11:12:59.386Z,0.43
2018-03-20T11:13:59.532Z,0.49
2018-03-20T11:14:59.683Z,0.47
2018-03-20T11:15:59.827Z,0.44
2018-03-20T11:16:59.976Z,0.43
2018-03-20T11:18:00.140Z,0.49
2018-03-20T11:19:00.280Z,0.47
2018-03-20T11:20:00.423Z,0.46
2018-03-20T11:21:00.572Z,0.49
2018-03-20T11:22:00.721Z,0.43
2018-03-20T11:23:00.875Z,0.37
2018-03-20T11:24:01.001Z,0.37
2018-03-20T11:25:01.152Z,0.56
2018-03-20T11:26:01.315Z,0.46
2018-03-20T11:27:01.463Z,0.58
2018-03-20T11:28:01.607Z,0.76
2018-03-20T11:29:01.755Z,0.77
2018-03-20T11:30:01.902Z,0.70
2018-03-20T11:31:02.052Z,0.83
2018-03-20T11:32:02.199Z,0.81
2018-03-20T11:33:02.344Z,0.88
2018-03-20T11:34:02.491Z,0.80
2018-03-20T11:35:02.663Z,0.80
2018-03-20T11:36:02.787Z,0.68
2018-03-20T11:37:02.931Z,0.65
2018-03-20T11:38:03.088Z,0.70
2018-03-20T11:39:03.224Z,0.70
2018-03-20T11:40:03.370Z,0.81
2018-03-20T11:41:03.518Z,0.73
2018-03-20T11:42:03.676Z,0.78
2018-03-20T11:43:03.819Z,0.69
2018-03-20T11:44:03.969Z,0.47
2018-03-20T11:45:04.125Z,0.47
2018-03-20T11:46:04.271Z,0.59
2018-03-20T11:47:04.425Z,0.66
2018-03-20T11:48:04.571Z,0.43
2018-03-20T11:49:04.728Z,0.41
2018-03-20T11:50:04.869Z,0.43
2018-03-20T11:51:05.015Z,0.65
2018-03-20T11:52:05.166Z,0.74
2018-03-20T11:53:05.311Z,0.66
2018-03-20T11:54:05.461Z,0.87
2018-03-20T11:55:05.620Z,0.96
2018-03-20T11:56:05.760Z,1.16
2018-03-20T11:57:05.903Z,1.17
2018-03-20T11:58:06.060Z,1.17
2018-03-20T11:59:06.199Z,1.34
2018-03-20T12:00:06.353Z,1.62
2018-03-20T12:01:06.492Z,1.87
2018-03-20T12:02:06.641Z,2.13
2018-03-20T12:03:06.796Z,2.28
2018-03-20T12:04:06.939Z,2.29
2018-03-20T12:05:07.086Z,2.24
2018-03-20T12:06:07.236Z,2.14
2018-03-20T12:07:07.380Z,2.13
2018-03-20T12:08:07.548Z,1.89
2018-03-20T12:09:07.693Z,1.77
2018-03-20T12:10:07.843Z,1.88
2018-03-20T12:11:08.001Z,1.81
2018-03-20T12:12:08.135Z,1.89
2018-03-20T12:13:08.312Z,1.97
2018-03-20T12:14:08.432Z,2.24
2018-03-20T12:15:08.588Z,2.24
2018-03-20T12:16:08.731Z,2.18
2018-03-20T12:17:08.879Z,2.35
2018-03-20T12:18:09.025Z,2.32
2018-03-20T12:19:09.172Z,2.28
2018-03-20T12:20:09.323Z,2.38
2018-03-20T12:21:09.476Z,2.44
2018-03-20T12:22:09.626Z,2.49
2018-03-20T12:23:09.772Z,2.49
2018-03-20T12:24:09.926Z,2.46
2018-03-20T12:25:10.073Z,2.57
2018-03-20T12:26:10.223Z,2.51
2018-03-20T12:27:10.371Z,2.61
2018-03-20T12:28:10.514Z,2.53
2018-03-20T12:29:10.671Z,2.64
2018-03-20T12:30:10.820Z,2.68
2018-03-20T12:31:10.958Z,2.65
2018-03-20T12:32:11.108Z,2.80
2018-03-20T12:33:11.255Z,2.87
2018-03-20T12:34:11.401Z,2.97
2018-03-20T12:35:11.550Z,2.98
2018-03-20T12:36:11.700Z,3.03
2018-03-20T12:37:11.865Z,3.08
2018-03-20T12:38:11.994Z,3.19
2018-03-20T12:39:12.141Z,2.93
2018-03-20T12:40:12.296Z,3.00
2018-03-20T12:41:12.453Z,2.92
2018-03-20T12:42:12.595Z,2.82
2018-03-20T12:43:12.742Z,2.75
2018-03-20T12:44:12.892Z,2.71
2018-03-20T12:45:13.048Z,2.75
2018-03-20T12:46:13.198Z,2.80
2018-03-20T12:47:13.347Z,2.93
2018-03-20T12:48:13.499Z,2.83
2018-03-20T12:49:13.648Z,2.93
2018-03-20T12:50:13.795Z,2.93
2018-03-20T12:51:13.944Z,2.92
2018-03-20T12:52:14.097Z,2.90
2018-03-20T12:53:14.248Z,2.95
2018-03-20T12:54:14.400Z,2.92
2018-03-20T12:55:14.553Z,2.95
2018-03-20T12:56:14.699Z,2.79
2018-03-20T12:57:14.852Z,2.85
2018-03-20T12:58:15.001Z,2.82
2018-03-20T12:59:15.136Z,2.92
2018-03-20T13:00:15.288Z,2.83
2018-03-20T13:01:15.436Z,2.86
2018-03-20T13:02:15.583Z,2.82
2018-03-20T13:03:15.739Z,2.79
2018-03-20T13:04:15.884Z,2.77
2018-03-20T13:05:16.033Z,2.71
2018-03-20T13:06:16.178Z,2.56
2018-03-20T13:07:16.325Z,2.64
2018-03-20T13:08:16.480Z,2.71
2018-03-20T13:09:16.621Z,2.80
2018-03-20T13:10:16.769Z,2.75
2018-03-20T13:11:16.909Z,2.86
2018-03-20T13:12:17.060Z,2.79